createdAt,value
2022-09-05T00:02:03.347Z,2.80
2022-09-05T00:04:46.553Z,2.83
2022-09-05T00:07:34.395Z,2.60
2022-09-05T00:10:35.963Z,2.92
2022-09-05T00:13:09.913Z,3.00
2022-09-05T00:15:49.977Z,3.00
2022-09-05T00:22:23.790Z,2.70
2022-09-05T00:24:36.940Z,2.80
2022-09-05T00:24:50.192Z,3.00
2022-09-05T00:27:49.956Z,3.13
2022-09-05T00:31:08.690Z,2.63
2022-09-05T00:33:41.351Z,2.50
2022-09-05T00:36:29.180Z,2.63
2022-09-05T00:39:10.503Z,2.67
2022-09-05T00:41:37.777Z,2.67
2022-09-05T00:44:06.366Z,2.58
2022-09-05T00:46:38.978Z,2.80
2022-09-05T00:49:24.313Z,2.65
2022-09-05T00:51:55.569Z,3.10
2022-09-05T00:54:40.363Z,2.53
2022-09-05T00:57:41.321Z,2.92
2022-09-05T01:00:17.339Z,3.13
2022-09-05T01:03:22.360Z,3.33
2022-09-05T01:06:15.342Z,3.00
2022-09-05T01:09:07.576Z,3.05
2022-09-05T01:11:56.762Z,3.20
2022-09-05T01:15:01.132Z,3.42
2022-09-05T01:17:27.821Z,3.15
2022-09-05T01:20:29.850Z,3.30
2022-09-05T01:23:19.600Z,3.08
2022-09-05T01:25:48.979Z,3.50
2022-09-05T01:29:18.566Z,3.42
2022-09-05T01:32:03.572Z,3.10
2022-09-05T01:35:25.744Z,3.33
2022-09-05T01:38:06.680Z,3.15
2022-09-05T01:41:01.252Z,3.40
2022-09-05T01:44:01.595Z,3.03
2022-09-05T01:46:43.675Z,3.17
2022-09-05T01:49:30.020Z,3.42
2022-09-05T01:52:15.616Z,2.95
2022-09-05T01:55:03.128Z,3.25
2022-09-05T01:57:40.059Z,3.28
2022-09-05T02:00:16.318Z,3.17
2022-09-05T02:03:06.260Z,3.08
2022-09-05T02:05:51.918Z,3.33
2022-09-05T02:08:34.086Z,3.60
2022-09-05T02:11:05.329Z,3.50
2022-09-05T02:13:51.369Z,3.25
2022-09-05T02:16:20.963Z,3.67
2022-09-05T02:19:14.940Z,3.65
2022-09-05T02:21:57.558Z,2.80
2022-09-05T02:24:36.360Z,3.25
2022-09-05T02:27:48.931Z,3.53
2022-09-05T02:30:10.840Z,3.17
2022-09-05T02:32:48.274Z,3.40
2022-09-05T02:35:46.022Z,3.63
2022-09-05T02:39:09.206Z,3.38
2022-09-05T02:45:10.984Z,3.05
2022-09-05T02:45:19.432Z,3.20
2022-09-05T02:47:22.615Z,3.10
2022-09-05T02:57:22.979Z,3.03
2022-09-05T02:57:33.867Z,3.17
2022-09-05T02:57:35.753Z,3.20
2022-09-05T02:59:10.078Z,3.17
2022-09-05T03:01:58.668Z,3.33
2022-09-05T03:04:37.888Z,3.35
2022-09-05T03:07:07.768Z,3.28
2022-09-05T03:09:40.520Z,3.65
2022-09-05T03:12:35.321Z,3.10
2022-09-05T03:15:22.412Z,3.70
2022-09-05T03:18:20.598Z,4.13
2022-09-05T03:21:15.918Z,3.60
2022-09-05T03:24:04.183Z,3.88
2022-09-05T03:26:52.721Z,4.00
2022-09-05T03:29:41.940Z,3.67
2022-09-05T03:32:48.943Z,4.10
2022-09-05T03:35:31.045Z,4.30
2022-09-05T03:38:22.931Z,4.53
2022-09-05T03:41:09.778Z,4.00
2022-09-05T03:43:49.914Z,4.38
2022-09-05T03:46:36.073Z,4.00
2022-09-05T03:50:35.881Z,3.90
2022-09-05T03:57:10.814Z,3.63
2022-09-05T03:57:14.074Z,4.00
2022-09-05T03:58:57.564Z,4.22
2022-09-05T04:03:04.150Z,3.83
2022-09-05T04:08:24.100Z,4.20
2022-09-05T04:08:24.162Z,3.92
2022-09-05T04:10:47.484Z,4.07
2022-09-05T04:13:25.293Z,3.78
2022-09-05T04:16:11.972Z,3.70
2022-09-05T04:19:13.744Z,3.70
2022-09-05T04:22:22.182Z,4.13
2022-09-05T04:25:03.878Z,4.30
2022-09-05T04:27:36.804Z,3.50
2022-09-05T04:30:38.484Z,3.97
2022-09-05T04:33:15.753Z,4.13
2022-09-05T04:36:17.676Z,4.90
2022-09-05T04:38:46.068Z,4.30
2022-09-05T04:41:18.212Z,4.13
2022-09-05T04:43:51.335Z,4.47
2022-09-05T04:46:33.612Z,4.93
2022-09-05T04:49:24.279Z,4.25
2022-09-05T04:52:28.174Z,4.65
2022-09-05T04:55:05.839Z,4.20
2022-09-05T04:57:45.150Z,3.90
2022-09-05T05:05:58.241Z,4.45
2022-09-05T05:06:15.299Z,4.43
2022-09-05T05:09:07.000Z,4.95
2022-09-05T05:17:58.897Z,4.43
2022-09-05T05:18:00.614Z,5.32
2022-09-05T05:18:36.752Z,5.03
2022-09-05T05:20:59.620Z,5.05
2022-09-05T05:23:34.899Z,5.13
2022-09-05T05:26:07.253Z,4.80
2022-09-05T05:28:49.462Z,4.65
2022-09-05T05:31:29.229Z,4.70
2022-09-05T05:34:03.910Z,4.78
2022-09-05T05:36:47.228Z,5.00
2022-09-05T05:39:23.676Z,4.80
2022-09-05T05:41:54.562Z,4.65
2022-09-05T05:44:21.287Z,4.50
2022-09-05T05:46:59.242Z,4.45
2022-09-05T05:49:53.992Z,5.00
2022-09-05T05:52:50.074Z,4.18
2022-09-05T05:55:53.139Z,4.40
2022-09-05T05:58:32.932Z,4.18
2022-09-05T06:01:21.911Z,4.28
2022-09-05T06:04:14.388Z,3.90
2022-09-05T06:07:15.892Z,4.10
2022-09-05T06:14:51.621Z,4.25
2022-09-05T06:14:59.172Z,4.10
2022-09-05T06:16:37.451Z,4.13
2022-09-05T06:19:28.938Z,3.58
2022-09-05T06:22:41.482Z,3.45
2022-09-05T06:25:36.190Z,3.45
2022-09-05T06:28:19.057Z,2.95
2022-09-05T06:31:29.286Z,3.55
2022-09-05T06:33:57.747Z,3.47
2022-09-05T06:37:16.640Z,3.50
2022-09-05T06:40:01.752Z,3.78
2022-09-05T06:42:53.273Z,3.47
2022-09-05T06:45:58.593Z,3.83
2022-09-05T06:48:46.456Z,3.75
2022-09-05T06:51:44.868Z,3.45
2022-09-05T06:54:32.531Z,3.30
2022-09-05T06:57:03.603Z,3.13
2022-09-05T07:00:02.665Z,3.15
2022-09-05T07:02:58.965Z,3.20
2022-09-05T07:05:50.259Z,3.20
2022-09-05T07:08:35.714Z,3.17
2022-09-05T07:11:30.963Z,3.10
2022-09-05T07:14:13.513Z,2.90
2022-09-05T07:16:47.452Z,3.13
2022-09-05T07:19:31.647Z,3.20
2022-09-05T07:22:46.182Z,2.95
2022-09-05T07:25:18.413Z,3.05
2022-09-05T07:28:29.028Z,2.95
2022-09-05T07:31:13.583Z,2.80
2022-09-05T07:34:20.448Z,3.15
2022-09-05T07:37:03.072Z,2.90
2022-09-05T07:40:03.944Z,2.63
2022-09-05T07:43:08.722Z,3.33
2022-09-05T07:45:56.129Z,3.15
2022-09-05T07:48:35.738Z,3.08
2022-09-05T07:56:52.641Z,3.40
2022-09-05T07:56:55.619Z,3.10
2022-09-05T07:57:22.392Z,2.85
2022-09-05T07:59:41.399Z,3.03
2022-09-05T08:02:10.897Z,3.28
2022-09-05T08:04:40.858Z,2.83
2022-09-05T08:07:49.061Z,3.25
2022-09-05T08:10:15.634Z,3.10
2022-09-05T08:13:34.079Z,2.90
2022-09-05T08:16:11.091Z,3.05
2022-09-05T08:18:49.897Z,3.30
2022-09-05T08:21:28.229Z,3.13
2022-09-05T08:24:17.526Z,3.40
2022-09-05T08:26:49.681Z,3.10
2022-09-05T08:29:22.404Z,2.80
2022-09-05T08:32:08.391Z,3.35
2022-09-05T08:34:56.966Z,3.00
2022-09-05T08:37:27.152Z,2.90
2022-09-05T08:40:11.530Z,3.20
2022-09-05T08:46:37.150Z,2.38
2022-09-05T08:46:46.520Z,3.55
2022-09-05T08:49:38.578Z,2.92
2022-09-05T08:52:46.592Z,3.17
2022-09-05T08:56:04.501Z,3.05
2022-09-05T08:58:49.453Z,3.08
2022-09-05T09:01:46.583Z,3.20
2022-09-05T09:05:01.875Z,3.42
2022-09-05T09:07:51.140Z,3.15
2022-09-05T09:10:40.977Z,3.55
2022-09-05T09:13:52.378Z,3.47
2022-09-05T09:16:31.414Z,3.70
2022-09-05T09:19:30.756Z,3.70
2022-09-05T09:22:11.821Z,3.40
2022-09-05T09:25:14.315Z,3.60
2022-09-05T09:28:50.436Z,3.70
2022-09-05T09:30:57.478Z,3.30
2022-09-05T09:33:38.513Z,3.35
2022-09-05T09:36:23.770Z,3.45
2022-09-05T09:39:37.619Z,3.35
2022-09-05T09:42:32.924Z,3.05
2022-09-05T09:45:28.648Z,3.63
2022-09-05T09:48:19.164Z,3.20
2022-09-05T09:51:01.218Z,3.90
2022-09-05T09:54:05.464Z,3.70
2022-09-05T09:56:47.289Z,3.53
2022-09-05T09:59:54.694Z,3.20
2022-09-05T10:04:12.525Z,3.25
2022-09-05T10:10:33.174Z,3.20
2022-09-05T10:10:43.853Z,3.97
2022-09-05T10:12:01.215Z,4.10
2022-09-05T10:14:50.030Z,3.72
2022-09-05T10:17:17.946Z,3.83
2022-09-05T10:20:17.029Z,3.65
2022-09-05T10:22:55.890Z,3.10
2022-09-05T10:25:47.164Z,3.47
2022-09-05T10:28:36.365Z,3.50
2022-09-05T10:32:29.654Z,2.95
2022-09-05T10:35:16.835Z,3.60
2022-09-05T10:37:14.759Z,3.40
2022-09-05T10:39:48.439Z,2.80
2022-09-05T10:42:43.325Z,3.05
2022-09-05T10:45:56.093Z,3.22
2022-09-05T10:48:31.036Z,2.95
2022-09-05T10:51:08.804Z,3.58
2022-09-05T10:53:47.505Z,2.85
2022-09-05T10:56:19.642Z,3.55
2022-09-05T11:00:30.566Z,3.40
2022-09-05T11:02:29.183Z,3.33
2022-09-05T11:05:23.553Z,3.55
2022-09-05T11:07:53.438Z,3.20
2022-09-05T11:10:31.509Z,3.40
2022-09-05T11:13:11.362Z,3.30
2022-09-05T11:16:03.986Z,3.78
2022-09-05T11:19:02.370Z,2.95
2022-09-05T11:21:41.182Z,2.60
2022-09-05T11:24:27.660Z,3.20
2022-09-05T11:27:23.820Z,2.80
2022-09-05T11:29:56.204Z,3.00
2022-09-05T11:38:30.585Z,2.78
2022-09-05T11:39:48.632Z,2.58
2022-09-05T11:40:03.914Z,2.72
2022-09-05T11:42:08.908Z,2.42
2022-09-05T11:44:54.021Z,3.10
2022-09-05T11:47:47.515Z,2.58
2022-09-05T11:50:26.365Z,2.60
2022-09-05T11:53:11.568Z,2.60
2022-09-05T11:55:53.476Z,2.72
2022-09-05T11:58:49.236Z,2.63
2022-09-05T12:04:15.871Z,2.90
2022-09-05T12:06:56.775Z,2.72
2022-09-05T12:09:46.269Z,2.97
2022-09-05T12:12:41.139Z,2.58
2022-09-05T12:15:34.461Z,2.38
2022-09-05T12:18:42.249Z,2.50
2022-09-05T12:21:17.491Z,2.78
2022-09-05T12:24:49.782Z,2.50
2022-09-05T12:27:40.716Z,2.15
2022-09-05T12:29:59.595Z,2.50
2022-09-05T12:33:52.280Z,2.60
2022-09-05T12:36:09.705Z,2.40
2022-09-05T12:40:57.720Z,2.55
2022-09-05T12:41:35.368Z,2.70
2022-09-05T12:41:39.049Z,2.72
2022-09-05T12:44:44.398Z,2.55
2022-09-05T12:47:19.329Z,2.65
2022-09-05T12:50:14.528Z,2.47
2022-09-05T12:52:50.525Z,2.03
2022-09-05T12:55:17.216Z,2.58
2022-09-05T13:02:22.084Z,2.70
2022-09-05T13:03:01.948Z,2.67
2022-09-05T13:03:34.340Z,2.58
2022-09-05T13:06:25.119Z,2.60
2022-09-05T13:09:00.437Z,2.63
2022-09-05T13:14:47.398Z,2.42
2022-09-05T13:15:02.403Z,2.72
2022-09-05T13:17:27.293Z,2.55
2022-09-05T13:19:55.505Z,2.75
2022-09-05T13:22:25.715Z,2.50
2022-09-05T13:25:07.330Z,2.20
2022-09-05T13:27:40.792Z,2.67
2022-09-05T13:31:40.699Z,2.63
2022-09-05T13:38:16.417Z,2.50
2022-09-05T13:38:30.881Z,2.63
2022-09-05T13:39:10.880Z,2.55
2022-09-05T13:41:44.928Z,2.33
2022-09-05T13:44:25.370Z,2.55
2022-09-05T13:47:31.628Z,2.67
2022-09-05T13:50:23.165Z,2.42
2022-09-05T13:53:02.306Z,2.50
2022-09-05T13:55:38.943Z,2.25
2022-09-05T13:58:42.733Z,2.60
2022-09-05T14:01:36.091Z,2.40
2022-09-05T14:07:46.185Z,2.35
2022-09-05T14:10:16.180Z,2.20
2022-09-05T14:13:11.639Z,2.20
2022-09-05T14:15:52.648Z,2.20
2022-09-05T14:19:04.776Z,2.00
2022-09-05T14:21:36.868Z,2.50
2022-09-05T14:24:09.793Z,2.00
2022-09-05T14:26:55.305Z,2.30
2022-09-05T14:29:40.878Z,2.30
2022-09-05T14:37:41.028Z,2.20
2022-09-05T14:37:43.228Z,2.03
2022-09-05T14:38:15.365Z,2.13
2022-09-05T14:41:24.900Z,2.60
2022-09-05T14:44:07.796Z,2.42
2022-09-05T14:46:49.839Z,2.08
2022-09-05T14:49:43.165Z,2.22
2022-09-05T14:52:23.612Z,2.53
2022-09-05T15:02:38.503Z,2.47
2022-09-05T15:02:51.310Z,2.40
2022-09-05T15:06:35.542Z,1.90
2022-09-05T15:12:16.998Z,2.35
2022-09-05T15:12:27.795Z,2.47
2022-09-05T15:14:45.500Z,2.42
2022-09-05T15:17:21.679Z,2.45
2022-09-05T15:20:06.879Z,2.10
2022-09-05T15:22:47.925Z,2.50
2022-09-05T15:25:17.218Z,2.60
2022-09-05T15:27:46.376Z,2.10
2022-09-05T15:30:35.167Z,2.10
2022-09-05T15:33:25.415Z,2.08
2022-09-05T15:35:53.187Z,2.53
2022-09-05T15:38:31.037Z,2.28
2022-09-05T15:41:19.599Z,2.17
2022-09-05T15:43:58.304Z,2.15
2022-09-05T15:46:36.361Z,2.30
2022-09-05T15:49:06.575Z,2.33
2022-09-05T15:51:48.677Z,2.30
2022-09-05T15:54:36.000Z,2.30
2022-09-05T15:57:08.988Z,2.33
2022-09-05T15:59:49.660Z,2.13
2022-09-05T16:02:27.018Z,2.40
2022-09-05T16:10:27.143Z,2.45
2022-09-05T16:10:49.146Z,2.15
2022-09-05T16:12:00.471Z,2.20
2022-09-05T16:14:26.100Z,2.13
2022-09-05T16:23:13.033Z,2.30
2022-09-05T16:23:26.207Z,2.00
2022-09-05T16:23:33.824Z,1.90
2022-09-05T16:25:42.025Z,2.60
2022-09-05T16:28:19.785Z,2.28
2022-09-05T16:30:48.213Z,2.78
2022-09-05T16:33:28.247Z,3.00
2022-09-05T16:36:17.471Z,2.60
2022-09-05T16:38:53.231Z,2.30
2022-09-05T16:41:24.538Z,2.70
2022-09-05T16:44:07.907Z,2.55
2022-09-05T16:46:40.779Z,2.58
2022-09-05T16:49:12.094Z,2.50
2022-09-05T16:51:45.501Z,2.75
2022-09-05T16:54:33.365Z,2.88
2022-09-05T16:57:04.304Z,3.45
2022-09-05T16:59:38.012Z,2.80
2022-09-05T17:02:28.543Z,2.85
2022-09-05T17:05:12.932Z,2.50
2022-09-05T17:07:45.595Z,2.67
2022-09-05T17:10:17.962Z,2.58
2022-09-05T17:12:44.757Z,2.47
2022-09-05T17:15:16.837Z,2.95
2022-09-05T17:18:20.239Z,3.08
2022-09-05T17:20:36.999Z,2.90
2022-09-05T17:29:20.568Z,3.30
2022-09-05T17:29:25.497Z,2.30
2022-09-05T17:29:34.294Z,2.45
2022-09-05T17:31:59.432Z,2.58
2022-09-05T17:34:54.604Z,2.90
2022-09-05T17:37:49.122Z,2.63
2022-09-05T17:40:42.731Z,2.60
2022-09-05T17:43:13.210Z,2.50
2022-09-05T17:45:56.788Z,2.70
2022-09-05T17:49:05.315Z,4.00
2022-09-05T17:51:35.165Z,5.75
2022-09-05T17:54:03.208Z,6.82
2022-09-05T17:56:38.890Z,6.10
2022-09-05T17:59:17.702Z,5.03
2022-09-05T18:02:03.207Z,4.13
2022-09-05T18:04:50.666Z,2.65
2022-09-05T18:07:26.494Z,2.53
2022-09-05T18:10:11.850Z,2.63
2022-09-05T18:15:27.514Z,3.13
2022-09-05T18:17:54.583Z,2.78
2022-09-05T18:20:27.741Z,2.80
2022-09-05T18:23:15.805Z,2.40
2022-09-05T18:26:14.173Z,2.90
2022-09-05T18:29:06.005Z,2.80
2022-09-05T18:31:40.872Z,2.70
2022-09-05T18:34:15.350Z,3.13
2022-09-05T18:36:44.839Z,2.70
2022-09-05T18:39:38.154Z,3.05
2022-09-05T18:42:33.219Z,2.67
2022-09-05T18:45:16.213Z,2.90
2022-09-05T18:47:59.049Z,2.85
2022-09-05T18:50:32.360Z,2.75
2022-09-05T18:53:09.517Z,2.72
2022-09-05T18:56:14.181Z,2.55
2022-09-05T18:58:51.706Z,3.15
2022-09-05T19:01:36.449Z,2.92
2022-09-05T19:04:08.726Z,2.90
2022-09-05T19:06:45.227Z,2.75
2022-09-05T19:09:26.610Z,3.20
2022-09-05T19:12:00.542Z,2.95
2022-09-05T19:14:59.905Z,3.05
2022-09-05T19:17:46.879Z,2.75
2022-09-05T19:20:32.645Z,3.00
2022-09-05T19:23:11.272Z,2.97
2022-09-05T19:25:44.562Z,2.97
2022-09-05T19:36:44.369Z,3.47
2022-09-05T19:36:57.052Z,3.10
2022-09-05T19:37:02.460Z,3.00
2022-09-05T19:37:28.923Z,3.47
2022-09-05T19:43:33.098Z,3.30
2022-09-05T19:47:36.729Z,3.28
2022-09-05T19:47:45.139Z,3.47
2022-09-05T19:48:34.511Z,3.30
2022-09-05T19:51:17.527Z,3.58
2022-09-05T19:54:04.610Z,3.58
2022-09-05T19:56:57.427Z,3.80
2022-09-05T19:59:38.189Z,3.75
2022-09-05T20:02:14.133Z,4.13
2022-09-05T20:04:53.293Z,3.95
2022-09-05T20:07:22.689Z,4.07
2022-09-05T20:09:51.691Z,3.97
2022-09-05T20:12:37.556Z,3.58
2022-09-05T20:15:35.781Z,3.63
2022-09-05T20:18:22.506Z,3.58
2022-09-05T20:20:51.893Z,3.80
2022-09-05T20:23:19.826Z,3.15
2022-09-05T20:25:48.303Z,3.67
2022-09-05T20:28:18.645Z,3.67
2022-09-05T20:30:48.960Z,3.40
2022-09-05T20:33:23.701Z,3.67
2022-09-05T20:42:23.256Z,3.45
2022-09-05T20:43:20.654Z,3.67
2022-09-05T20:43:30.344Z,3.40
2022-09-05T20:44:25.099Z,3.17
2022-09-05T20:52:08.866Z,3.35
2022-09-05T20:54:15.841Z,3.42
2022-09-05T20:54:17.372Z,3.40
2022-09-05T20:56:07.766Z,3.53
2022-09-05T20:58:38.095Z,4.00
2022-09-05T21:01:22.182Z,3.85
2022-09-05T21:03:59.658Z,3.72
2022-09-05T21:06:34.898Z,4.25
2022-09-05T21:09:24.248Z,3.53
2022-09-05T21:11:53.378Z,3.65
2022-09-05T21:14:21.974Z,3.90
2022-09-05T21:16:58.321Z,3.63
2022-09-05T21:19:30.128Z,3.75
2022-09-05T21:22:09.825Z,3.70
2022-09-05T21:24:36.858Z,3.67
2022-09-05T21:27:24.038Z,3.83
2022-09-05T21:29:59.029Z,3.65
2022-09-05T21:32:30.270Z,3.70
2022-09-05T21:35:33.847Z,3.28
2022-09-05T21:37:54.304Z,3.22
2022-09-05T21:40:21.641Z,3.15
2022-09-05T21:47:34.366Z,3.55
2022-09-05T21:47:42.803Z,4.03
2022-09-05T21:48:24.487Z,3.33
2022-09-05T21:50:54.301Z,3.40
2022-09-05T21:59:13.276Z,3.35
2022-09-05T21:59:28.803Z,3.45
2022-09-05T21:59:36.619Z,3.40
2022-09-05T22:02:05.325Z,3.60
2022-09-05T22:04:41.225Z,3.10
2022-09-05T22:07:14.346Z,2.80
2022-09-05T22:09:41.169Z,3.40
2022-09-05T22:12:23.198Z,2.97
2022-09-05T22:14:58.026Z,3.30
2022-09-05T22:17:39.437Z,3.13
2022-09-05T22:20:08.601Z,3.15
2022-09-05T22:22:38.105Z,2.83
2022-09-05T22:25:13.367Z,3.25
2022-09-05T22:27:43.808Z,3.25
2022-09-05T22:30:13.467Z,3.03
2022-09-05T22:32:40.337Z,3.13
2022-09-05T22:35:18.519Z,3.08
2022-09-05T22:38:00.466Z,3.33
2022-09-05T22:40:29.159Z,3.15
2022-09-05T22:42:57.553Z,3.35
2022-09-05T22:45:25.087Z,2.88
2022-09-05T22:47:52.531Z,2.90
2022-09-05T22:50:19.628Z,3.35
2022-09-05T22:52:46.411Z,3.38
2022-09-05T22:55:13.349Z,3.42
2022-09-05T22:57:40.945Z,3.38
2022-09-05T23:00:09.293Z,3.42
2022-09-05T23:02:36.189Z,3.40
2022-09-05T23:05:04.480Z,3.00
2022-09-05T23:07:32.651Z,2.90
2022-09-05T23:09:59.604Z,2.95
2022-09-05T23:12:26.549Z,2.95
2022-09-05T23:14:53.379Z,3.28
2022-09-05T23:17:20.210Z,3.00
2022-09-05T23:19:46.933Z,2.85
2022-09-05T23:22:13.685Z,3.20
2022-09-05T23:24:40.479Z,3.17
2022-09-05T23:27:07.193Z,3.38
2022-09-05T23:29:34.032Z,3.08
2022-09-05T23:32:00.837Z,2.75
2022-09-05T23:34:27.640Z,3.13
2022-09-05T23:36:54.511Z,3.15
2022-09-05T23:39:21.257Z,3.33
2022-09-05T23:41:48.051Z,3.25
2022-09-05T23:44:14.786Z,3.50
2022-09-05T23:46:41.549Z,3.67
2022-09-05T23:49:08.343Z,3.45
2022-09-05T23:51:35.270Z,3.40
2022-09-05T23:54:02.143Z,3.20
2022-09-05T23:56:29.101Z,3.08
2022-09-05T23:58:55.892Z,3.50
